createdAt,value
2019-05-05T00:00:35.209Z,11.93
2019-05-05T00:03:34.273Z,13.10
2019-05-05T00:06:22.442Z,9.20
2019-05-05T00:09:10.498Z,9.47
2019-05-05T00:12:00.081Z,13.20
2019-05-05T00:14:54.687Z,12.27
2019-05-05T00:17:45.016Z,11.23
2019-05-05T00:20:34.372Z,10.17
2019-05-05T00:23:22.452Z,10.70
2019-05-05T00:26:10.403Z,10.80
2019-05-05T00:28:58.470Z,13.60
2019-05-05T00:31:46.188Z,10.37
2019-05-05T00:34:34.974Z,11.57
2019-05-05T00:37:25.467Z,11.03
2019-05-05T00:40:14.229Z,11.63
2019-05-05T00:43:02.165Z,11.43
2019-05-05T00:45:51.680Z,12.80
2019-05-05T00:48:44.483Z,10.97
2019-05-05T00:51:32.225Z,11.10
2019-05-05T00:54:19.889Z,12.53
2019-05-05T00:57:08.009Z,13.10
2019-05-05T00:59:55.641Z,15.30
2019-05-05T01:02:45.192Z,11.67
2019-05-05T01:05:49.864Z,12.73
2019-05-05T01:08:37.608Z,15.77
2019-05-05T01:11:25.926Z,13.53
2019-05-05T01:14:14.407Z,13.07
2019-05-05T01:17:02.493Z,13.63
2019-05-05T01:20:01.136Z,13.87
2019-05-05T01:22:39.993Z,13.63
2019-05-05T01:25:28.035Z,14.20
2019-05-05T01:28:15.722Z,14.10
2019-05-05T01:31:05.688Z,13.13
2019-05-05T01:33:55.260Z,13.80
2019-05-05T01:36:45.142Z,13.77
2019-05-05T01:39:40.858Z,13.10
2019-05-05T01:42:28.462Z,13.53
2019-05-05T01:45:16.102Z,12.97
2019-05-05T01:48:04.874Z,11.80
2019-05-05T01:50:54.395Z,12.80
2019-05-05T01:53:44.143Z,12.43
2019-05-05T01:56:31.805Z,13.87
2019-05-05T01:59:19.736Z,14.40
2019-05-05T02:02:07.649Z,13.40
2019-05-05T02:04:55.534Z,14.03
2019-05-05T02:07:44.858Z,13.13
2019-05-05T02:10:34.930Z,13.27
2019-05-05T02:13:22.316Z,14.07
2019-05-05T02:16:10.253Z,13.53
2019-05-05T02:18:58.180Z,13.97
2019-05-05T02:21:45.933Z,13.93
2019-05-05T02:24:35.311Z,13.63
2019-05-05T02:27:25.218Z,14.63
2019-05-05T02:30:26.853Z,15.43
2019-05-05T02:33:15.962Z,15.10
2019-05-05T02:36:05.568Z,15.63
2019-05-05T02:38:56.462Z,15.37
2019-05-05T02:41:45.210Z,15.30
2019-05-05T02:44:34.918Z,15.53
2019-05-05T02:47:45.105Z,15.10
2019-05-05T02:50:51.089Z,14.53
2019-05-05T02:53:37.053Z,15.93
2019-05-05T02:56:29.609Z,16.93
2019-05-05T02:59:23.679Z,16.63
2019-05-05T03:02:14.485Z,16.07
2019-05-05T03:05:04.187Z,16.17
2019-05-05T03:07:54.420Z,17.80
2019-05-05T03:10:44.313Z,16.57
2019-05-05T03:13:33.768Z,16.80
2019-05-05T03:16:24.020Z,17.17
2019-05-05T03:19:14.261Z,16.83
2019-05-05T03:22:03.648Z,16.77
2019-05-05T03:24:54.103Z,17.87
2019-05-05T03:27:44.431Z,16.47
2019-05-05T03:30:35.339Z,16.77
2019-05-05T03:33:24.833Z,15.97
2019-05-05T03:36:14.013Z,16.70
2019-05-05T03:39:02.405Z,16.03
2019-05-05T03:41:51.765Z,16.80
2019-05-05T03:44:43.968Z,17.63
2019-05-05T03:47:33.681Z,16.43
2019-05-05T03:50:23.747Z,18.67
2019-05-05T03:53:14.004Z,16.97
2019-05-05T03:56:03.743Z,16.90
2019-05-05T03:58:54.110Z,17.63
2019-05-05T04:01:58.341Z,17.40
2019-05-05T04:04:47.668Z,17.97
2019-05-05T04:07:36.045Z,18.13
2019-05-05T04:10:24.510Z,19.17
2019-05-05T04:13:13.911Z,18.90
2019-05-05T04:16:07.013Z,18.37
2019-05-05T04:18:59.856Z,19.27
2019-05-05T04:21:47.596Z,17.33
2019-05-05T04:24:35.479Z,17.53
2019-05-05T04:27:23.955Z,17.83
2019-05-05T04:30:14.108Z,18.80
2019-05-05T04:33:03.669Z,19.17
2019-05-05T04:35:51.543Z,18.90
2019-05-05T04:38:39.157Z,18.83
2019-05-05T04:41:26.804Z,18.83
2019-05-05T04:44:17.874Z,17.53
2019-05-05T04:47:24.755Z,18.47
2019-05-05T04:50:18.303Z,17.57
2019-05-05T04:53:07.921Z,18.63
2019-05-05T04:55:55.941Z,18.63
2019-05-05T04:58:44.040Z,17.63
2019-05-05T05:01:33.552Z,16.47
2019-05-05T05:04:29.436Z,17.30
2019-05-05T05:07:18.272Z,15.77
2019-05-05T05:10:07.464Z,15.37
2019-05-05T05:12:55.497Z,15.20
2019-05-05T05:15:44.641Z,15.27
2019-05-05T05:18:34.400Z,14.60
2019-05-05T05:21:23.725Z,14.50
2019-05-05T05:24:11.881Z,14.40
2019-05-05T05:26:59.977Z,14.57
2019-05-05T05:29:47.737Z,13.00
2019-05-05T05:32:35.750Z,12.90
2019-05-05T05:35:24.398Z,12.23
2019-05-05T05:38:14.043Z,12.33
2019-05-05T05:41:09.502Z,12.23
2019-05-05T05:44:03.548Z,12.23
2019-05-05T05:47:03.608Z,12.60
2019-05-05T05:49:54.442Z,12.50
2019-05-05T05:52:43.644Z,11.77
2019-05-05T05:55:31.818Z,12.30
2019-05-05T05:58:19.846Z,12.07
2019-05-05T06:01:07.617Z,11.87
2019-05-05T06:03:55.286Z,11.03
2019-05-05T06:06:43.907Z,11.57
2019-05-05T06:09:31.593Z,11.63
2019-05-05T06:12:19.254Z,10.43
2019-05-05T06:15:07.932Z,10.20
2019-05-05T06:17:56.236Z,10.20
2019-05-05T06:20:44.508Z,10.43
2019-05-05T06:23:34.447Z,10.17
2019-05-05T06:26:24.034Z,10.57
2019-05-05T06:29:14.435Z,10.27
2019-05-05T06:32:21.024Z,9.23
2019-05-05T06:35:13.730Z,9.83
2019-05-05T06:38:01.405Z,9.37
2019-05-05T06:40:59.956Z,9.53
2019-05-05T06:43:51.964Z,8.50
2019-05-05T06:46:44.601Z,8.93
2019-05-05T06:49:34.385Z,8.53
2019-05-05T06:52:22.353Z,8.67
2019-05-05T06:55:10.376Z,8.20
2019-05-05T06:57:57.876Z,8.50
2019-05-05T07:00:45.500Z,7.50
2019-05-05T07:03:33.774Z,6.80
2019-05-05T07:06:23.809Z,6.53
2019-05-05T07:09:11.399Z,7.47
2019-05-05T07:11:59.505Z,7.37
2019-05-05T07:14:47.487Z,7.27
2019-05-05T07:17:35.521Z,6.07
2019-05-05T07:20:24.112Z,7.47
2019-05-05T07:23:14.302Z,6.77
2019-05-05T07:26:01.131Z,6.90
2019-05-05T07:28:49.112Z,6.47
2019-05-05T07:31:37.083Z,5.90
2019-05-05T07:34:26.344Z,6.20
2019-05-05T07:37:14.380Z,6.00
2019-05-05T07:40:04.214Z,5.23
2019-05-05T07:42:54.027Z,5.30
2019-05-05T07:45:41.937Z,5.17
2019-05-05T07:48:29.778Z,3.87
2019-05-05T07:51:17.652Z,4.27
2019-05-05T07:54:05.280Z,4.00
2019-05-05T07:56:53.812Z,3.57
2019-05-05T07:59:41.887Z,3.73
2019-05-05T08:02:29.829Z,3.37
2019-05-05T08:05:17.612Z,3.40
2019-05-05T08:08:05.441Z,3.70
2019-05-05T08:10:54.210Z,3.40
2019-05-05T08:13:44.134Z,3.27
2019-05-05T08:16:49.301Z,3.57
2019-05-05T08:19:54.387Z,3.50
2019-05-05T08:22:44.311Z,3.50
2019-05-05T08:25:40.181Z,3.10
2019-05-05T08:28:28.216Z,3.17
2019-05-05T08:31:20.416Z,2.90
2019-05-05T08:34:08.596Z,3.13
2019-05-05T08:36:59.450Z,3.00
2019-05-05T08:39:45.785Z,2.80
2019-05-05T08:42:33.971Z,3.00
2019-05-05T08:45:24.559Z,2.73
2019-05-05T08:48:11.482Z,3.20
2019-05-05T08:50:59.092Z,3.10
2019-05-05T08:53:48.346Z,2.90
2019-05-05T08:56:36.296Z,3.00
2019-05-05T08:59:24.312Z,2.73
2019-05-05T09:02:12.046Z,2.60
2019-05-05T09:04:59.599Z,2.50
2019-05-05T09:07:47.259Z,2.67
2019-05-05T09:10:35.408Z,2.70
2019-05-05T09:13:24.681Z,3.20
2019-05-05T09:16:14.450Z,2.40
2019-05-05T09:19:04.124Z,2.30
2019-05-05T09:21:53.996Z,2.70
2019-05-05T09:24:55.336Z,2.80
2019-05-05T09:27:51.068Z,2.70
2019-05-05T09:30:47.217Z,2.20
2019-05-05T09:33:35.150Z,3.00
2019-05-05T09:36:24.311Z,2.67
2019-05-05T09:39:13.823Z,1.93
2019-05-05T09:42:03.949Z,2.13
2019-05-05T09:44:51.220Z,2.20
2019-05-05T09:47:39.329Z,2.00
2019-05-05T09:50:27.337Z,2.00
2019-05-05T09:53:15.096Z,2.27
2019-05-05T09:56:04.064Z,1.97
2019-05-05T09:59:25.542Z,2.20
2019-05-05T10:02:13.281Z,2.83
2019-05-05T10:05:03.469Z,2.30
2019-05-05T10:07:51.236Z,2.40
2019-05-05T10:10:38.884Z,2.73
2019-05-05T10:13:26.754Z,2.17
2019-05-05T10:16:14.871Z,2.00
2019-05-05T10:19:04.529Z,1.90
2019-05-05T10:21:52.345Z,2.30
2019-05-05T10:24:48.091Z,2.10
2019-05-05T10:27:44.924Z,2.10
2019-05-05T10:30:26.167Z,2.20
2019-05-05T10:33:14.435Z,1.83
2019-05-05T10:36:02.077Z,1.83
2019-05-05T10:38:54.621Z,1.80
2019-05-05T10:41:44.064Z,2.00
2019-05-05T10:44:33.913Z,1.90
2019-05-05T10:47:20.969Z,2.10
2019-05-05T10:50:08.977Z,2.20
2019-05-05T10:52:56.875Z,2.30
2019-05-05T10:55:45.116Z,2.40
2019-05-05T10:58:33.625Z,2.20
2019-05-05T11:01:23.543Z,2.30
2019-05-05T11:04:11.181Z,2.10
2019-05-05T11:07:00.325Z,2.20
2019-05-05T11:09:48.081Z,2.30
2019-05-05T11:12:36.144Z,2.20
2019-05-05T11:15:24.709Z,2.30
2019-05-05T11:18:14.720Z,2.37
2019-05-05T11:21:09.194Z,2.30
2019-05-05T11:23:56.916Z,1.90
2019-05-05T11:26:44.772Z,2.53
2019-05-05T11:29:32.804Z,1.90
2019-05-05T11:32:39.011Z,1.83
2019-05-05T11:35:30.315Z,1.90
2019-05-05T11:38:18.834Z,1.90
2019-05-05T11:41:10.969Z,1.80
2019-05-05T11:43:59.978Z,1.93
2019-05-05T11:46:47.909Z,2.00
2019-05-05T11:49:35.720Z,1.80
2019-05-05T11:52:23.455Z,1.70
2019-05-05T11:55:14.888Z,1.70
2019-05-05T11:58:03.449Z,4.93
2019-05-05T12:00:54.247Z,2.70
2019-05-05T12:03:41.613Z,1.93
2019-05-05T12:06:29.234Z,1.73
2019-05-05T12:09:18.785Z,1.63
2019-05-05T12:12:06.483Z,1.50
2019-05-05T12:14:54.702Z,1.70
2019-05-05T12:17:44.230Z,1.73
2019-05-05T12:20:36.773Z,1.70
2019-05-05T12:23:24.427Z,1.80
2019-05-05T12:26:20.237Z,1.80
2019-05-05T12:29:09.336Z,1.80
2019-05-05T12:31:56.835Z,1.80
2019-05-05T12:34:44.982Z,2.10
2019-05-05T12:37:34.119Z,2.03
2019-05-05T12:40:22.133Z,2.20
2019-05-05T12:43:09.966Z,2.20
2019-05-05T12:46:08.613Z,2.30
2019-05-05T12:48:58.081Z,2.27
2019-05-05T12:51:45.869Z,2.10
2019-05-05T12:54:33.807Z,2.10
2019-05-05T12:57:21.488Z,1.70
2019-05-05T13:00:09.402Z,1.90
2019-05-05T13:02:57.049Z,1.97
2019-05-05T13:05:45.151Z,1.90
2019-05-05T13:08:33.998Z,1.87
2019-05-05T13:11:23.775Z,1.60
2019-05-05T13:14:14.130Z,1.33
2019-05-05T13:17:03.640Z,1.27
2019-05-05T13:19:53.085Z,1.40
2019-05-05T13:22:45.322Z,1.50
2019-05-05T13:25:37.533Z,1.40
2019-05-05T13:28:25.823Z,2.00
2019-05-05T13:31:14.121Z,1.40
2019-05-05T13:34:01.685Z,1.50
2019-05-05T13:36:49.736Z,1.70
2019-05-05T13:39:38.105Z,1.50
2019-05-05T13:42:25.930Z,2.33
2019-05-05T13:45:21.423Z,1.60
2019-05-05T13:48:11.194Z,1.70
2019-05-05T13:51:06.705Z,1.53
2019-05-05T13:53:54.465Z,1.83
2019-05-05T13:56:44.033Z,1.40
2019-05-05T13:59:33.953Z,1.90
2019-05-05T14:02:21.803Z,1.60
2019-05-05T14:05:10.541Z,1.63
2019-05-05T14:07:58.714Z,1.60
2019-05-05T14:10:46.577Z,1.50
2019-05-05T14:13:34.491Z,1.63
2019-05-05T14:16:22.386Z,2.20
2019-05-05T14:19:10.542Z,1.67
2019-05-05T14:21:58.243Z,1.80
2019-05-05T14:24:47.686Z,1.77
2019-05-05T14:27:35.350Z,1.80
2019-05-05T14:30:28.245Z,1.80
2019-05-05T14:33:17.592Z,1.70
2019-05-05T14:36:07.157Z,2.00
2019-05-05T14:38:56.678Z,1.70
2019-05-05T14:41:44.672Z,2.23
2019-05-05T14:44:34.211Z,2.10
2019-05-05T14:47:21.860Z,2.33
2019-05-05T14:50:10.429Z,2.03
2019-05-05T14:52:58.001Z,1.80
2019-05-05T14:55:45.877Z,1.90
2019-05-05T14:58:33.833Z,1.70
2019-05-05T15:01:21.889Z,1.97
2019-05-05T15:04:11.137Z,1.77
2019-05-05T15:07:16.375Z,1.90
2019-05-05T15:10:14.457Z,1.90
2019-05-05T15:13:06.872Z,1.60
2019-05-05T15:15:54.936Z,1.70
2019-05-05T15:18:42.813Z,2.20
2019-05-05T15:21:30.773Z,2.00
2019-05-05T15:24:18.424Z,1.73
2019-05-05T15:27:06.414Z,1.80
2019-05-05T15:29:54.409Z,2.03
2019-05-05T15:32:43.813Z,1.80
2019-05-05T15:35:33.847Z,1.50
2019-05-05T15:38:21.561Z,2.50
2019-05-05T15:41:09.167Z,1.90
2019-05-05T15:43:56.827Z,1.90
2019-05-05T15:46:44.501Z,2.10
2019-05-05T15:49:32.485Z,2.40
2019-05-05T15:52:20.556Z,2.00
2019-05-05T15:55:09.606Z,1.87
2019-05-05T15:57:57.495Z,1.60
2019-05-05T16:00:45.394Z,1.90
2019-05-05T16:03:33.211Z,1.63
2019-05-05T16:06:21.009Z,1.90
2019-05-05T16:09:08.794Z,1.77
2019-05-05T16:11:56.477Z,1.70
2019-05-05T16:14:46.207Z,1.93
2019-05-05T16:17:54.333Z,2.00
2019-05-05T16:20:44.328Z,2.13
2019-05-05T16:23:37.310Z,2.00
2019-05-05T16:26:24.894Z,1.90
2019-05-05T16:29:33.572Z,2.30
2019-05-05T16:32:22.228Z,2.00
2019-05-05T16:35:11.957Z,2.30
2019-05-05T16:37:59.900Z,1.90
2019-05-05T16:40:47.901Z,1.87
2019-05-05T16:43:37.362Z,1.90
2019-05-05T16:46:25.942Z,3.47
2019-05-05T16:49:14.012Z,1.90
2019-05-05T16:52:04.139Z,1.70
2019-05-05T16:55:09.345Z,3.30
2019-05-05T16:58:07.174Z,3.23
2019-05-05T17:00:54.861Z,3.00
2019-05-05T17:03:45.413Z,4.60
2019-05-05T17:06:32.376Z,11.70
2019-05-05T17:09:20.483Z,8.57
2019-05-05T17:12:11.338Z,7.97
2019-05-05T17:15:22.538Z,6.43
2019-05-05T17:18:33.599Z,2.90
2019-05-05T17:21:23.038Z,1.60
2019-05-05T17:24:11.371Z,3.30
2019-05-05T17:27:00.001Z,1.97
2019-05-05T17:29:48.026Z,1.80
2019-05-05T17:32:35.818Z,1.90
2019-05-05T17:35:24.035Z,2.27
2019-05-05T17:38:13.883Z,1.80
2019-05-05T17:41:03.733Z,2.30
2019-05-05T17:43:54.210Z,2.20
2019-05-05T17:47:00.576Z,1.80
2019-05-05T17:49:55.946Z,2.33
2019-05-05T17:52:45.335Z,2.17
2019-05-05T17:55:35.096Z,2.20
2019-05-05T17:58:24.705Z,1.83
2019-05-05T18:01:13.249Z,2.07
2019-05-05T18:04:00.877Z,2.10
2019-05-05T18:06:53.672Z,2.17
2019-05-05T18:10:01.637Z,2.53
2019-05-05T18:12:54.353Z,12.07
2019-05-05T18:15:49.679Z,6.10
2019-05-05T18:18:37.456Z,3.93
2019-05-05T18:21:28.648Z,2.93
2019-05-05T18:24:15.341Z,6.00
2019-05-05T18:27:04.548Z,5.97
2019-05-05T18:29:54.366Z,9.53
2019-05-05T18:32:41.821Z,5.47
2019-05-05T18:35:29.726Z,6.27
2019-05-05T18:38:17.386Z,4.87
2019-05-05T18:41:06.953Z,5.80
2019-05-05T18:43:56.181Z,9.77
2019-05-05T18:46:43.948Z,4.03
2019-05-05T18:49:33.614Z,5.40
2019-05-05T18:52:21.593Z,4.70
2019-05-05T18:55:09.437Z,3.20
2019-05-05T18:57:57.170Z,2.57
2019-05-05T19:01:03.901Z,2.60
2019-05-05T19:03:54.469Z,2.40
2019-05-05T19:06:47.145Z,3.07
2019-05-05T19:09:34.778Z,2.73
2019-05-05T19:12:24.339Z,3.00
2019-05-05T19:15:13.684Z,3.10
2019-05-05T19:18:01.785Z,3.03
2019-05-05T19:20:54.044Z,2.60
2019-05-05T19:23:40.789Z,2.80
2019-05-05T19:26:28.790Z,2.70
2019-05-05T19:29:16.530Z,2.70
2019-05-05T19:32:04.221Z,4.10
2019-05-05T19:34:54.218Z,2.73
2019-05-05T19:37:41.501Z,2.57
2019-05-05T19:40:29.580Z,15.23
2019-05-05T19:43:17.193Z,8.73
2019-05-05T19:46:06.829Z,3.47
2019-05-05T19:49:14.589Z,3.17
2019-05-05T19:52:05.639Z,2.70
2019-05-05T19:54:51.433Z,5.00
2019-05-05T19:57:39.087Z,6.37
2019-05-05T20:00:26.893Z,4.40
2019-05-05T20:03:14.897Z,5.13
2019-05-05T20:06:04.636Z,5.40
2019-05-05T20:08:53.681Z,4.67
2019-05-05T20:11:43.558Z,4.53
2019-05-05T20:14:31.260Z,4.20
2019-05-05T20:17:29.808Z,3.30
2019-05-05T20:20:17.823Z,3.00
2019-05-05T20:23:05.424Z,3.10
2019-05-05T20:25:53.767Z,3.03
2019-05-05T20:28:42.940Z,3.33
2019-05-05T20:31:30.909Z,3.40
2019-05-05T20:34:24.279Z,3.80
2019-05-05T20:37:14.267Z,3.47
2019-05-05T20:40:03.976Z,3.57
2019-05-05T20:42:54.114Z,4.07
2019-05-05T20:45:41.697Z,4.10
2019-05-05T20:48:29.505Z,4.20
2019-05-05T20:51:17.077Z,4.33
2019-05-05T20:54:04.985Z,4.53
2019-05-05T20:56:53.997Z,4.17
2019-05-05T20:59:42.095Z,4.03
2019-05-05T21:02:29.723Z,4.20
2019-05-05T21:05:17.598Z,4.07
2019-05-05T21:08:05.537Z,3.57
2019-05-05T21:10:53.766Z,3.00
2019-05-05T21:13:41.873Z,3.57
2019-05-05T21:16:29.737Z,3.40
2019-05-05T21:19:17.757Z,3.70
2019-05-05T21:22:23.788Z,3.93
2019-05-05T21:25:29.744Z,3.87
2019-05-05T21:28:17.753Z,4.07
2019-05-05T21:31:05.628Z,4.20
2019-05-05T21:33:54.899Z,4.07
2019-05-05T21:36:44.766Z,5.30
2019-05-05T21:39:32.265Z,5.73
2019-05-05T21:42:20.017Z,4.47
2019-05-05T21:45:07.717Z,4.90
2019-05-05T21:47:55.498Z,5.20
2019-05-05T21:50:54.167Z,5.03
2019-05-05T21:53:43.574Z,5.07
2019-05-05T21:56:36.077Z,4.60
2019-05-05T21:59:24.261Z,4.27
2019-05-05T22:02:12.540Z,4.03
2019-05-05T22:05:00.532Z,4.50
2019-05-05T22:07:48.405Z,4.97
2019-05-05T22:10:36.317Z,4.87
2019-05-05T22:13:24.544Z,4.90
2019-05-05T22:16:13.641Z,5.27
2019-05-05T22:19:03.674Z,5.40
2019-05-05T22:22:05.474Z,4.83
2019-05-05T22:24:54.126Z,5.00
2019-05-05T22:27:44.140Z,5.43
2019-05-05T22:30:34.336Z,4.67
2019-05-05T22:33:21.429Z,5.43
2019-05-05T22:36:09.214Z,5.27
2019-05-05T22:38:56.860Z,5.40
2019-05-05T22:41:44.971Z,5.07
2019-05-05T22:44:33.883Z,4.90
2019-05-05T22:47:23.628Z,5.37
2019-05-05T22:50:13.876Z,5.30
2019-05-05T22:53:01.623Z,5.27
2019-05-05T22:55:49.672Z,5.63
2019-05-05T22:58:37.516Z,4.77
2019-05-05T23:01:25.249Z,5.73
2019-05-05T23:04:14.845Z,5.03
2019-05-05T23:07:07.417Z,5.73
2019-05-05T23:09:55.409Z,5.10
2019-05-05T23:12:43.990Z,6.40
2019-05-05T23:15:34.265Z,5.70
2019-05-05T23:18:30.540Z,5.13
2019-05-05T23:21:24.758Z,5.43
2019-05-05T23:24:23.831Z,5.23
2019-05-05T23:27:14.525Z,4.63
2019-05-05T23:30:02.181Z,5.63
2019-05-05T23:32:50.200Z,5.23
2019-05-05T23:35:38.062Z,6.17
2019-05-05T23:38:25.671Z,4.93
2019-05-05T23:41:14.605Z,5.13
2019-05-05T23:44:03.655Z,5.23
2019-05-05T23:46:53.580Z,5.30
2019-05-05T23:49:41.115Z,5.80
2019-05-05T23:52:28.977Z,6.07
2019-05-05T23:55:16.692Z,5.50
2019-05-05T23:58:04.272Z,4.97
